sensor_id;sensor_type;location;lat;lon;timestamp;temperature;humidity
59007;DHT22;44792;52.760;6.726;2022-11-15T00:00:48;7.90;99.90
59007;DHT22;44792;52.760;6.726;2022-11-15T00:03:15;7.80;99.90
59007;DHT22;44792;52.760;6.726;2022-11-15T00:05:41;7.90;99.90
59007;DHT22;44792;52.760;6.726;2022-11-15T00:08:08;7.90;99.90
59007;DHT22;44792;52.760;6.726;2022-11-15T00:10:33;7.90;99.90
59007;DHT22;44792;52.760;6.726;2022-11-15T00:12:59;7.90;99.90
59007;DHT22;44792;52.760;6.726;2022-11-15T00:15:24;8.00;99.90
59007;DHT22;44792;52.760;6.726;2022-11-15T00:17:50;8.00;99.90
59007;DHT22;44792;52.760;6.726;2022-11-15T00:20:17;8.00;99.90
59007;DHT22;44792;52.760;6.726;2022-11-15T00:22:42;8.00;99.90
59007;DHT22;44792;52.760;6.726;2022-11-15T00:25:08;8.00;99.90
59007;DHT22;44792;52.760;6.726;2022-11-15T00:27:34;8.00;99.90
59007;DHT22;44792;52.760;6.726;2022-11-15T00:30:00;8.00;99.90
59007;DHT22;44792;52.760;6.726;2022-11-15T00:32:26;8.00;99.90
59007;DHT22;44792;52.760;6.726;2022-11-15T00:34:51;8.10;99.90
59007;DHT22;44792;52.760;6.726;2022-11-15T00:37:17;8.00;99.90
59007;DHT22;44792;52.760;6.726;2022-11-15T00:39:42;8.00;99.90
59007;DHT22;44792;52.760;6.726;2022-11-15T00:42:08;8.10;99.90
59007;DHT22;44792;52.760;6.726;2022-11-15T00:44:33;8.10;99.90
59007;DHT22;44792;52.760;6.726;2022-11-15T00:46:59;8.10;99.90
59007;DHT22;44792;52.760;6.726;2022-11-15T00:49:24;8.20;99.90
59007;DHT22;44792;52.760;6.726;2022-11-15T00:51:50;8.20;99.90
59007;DHT22;44792;52.760;6.726;2022-11-15T00:54:15;8.20;99.90
59007;DHT22;44792;52.760;6.726;2022-11-15T00:56:41;8.20;99.90
59007;DHT22;44792;52.760;6.726;2022-11-15T00:59:06;8.20;99.90
59007;DHT22;44792;52.760;6.726;2022-11-15T01:01:32;8.20;99.90
59007;DHT22;44792;52.760;6.726;2022-11-15T01:03:57;8.30;99.90
59007;DHT22;44792;52.760;6.726;2022-11-15T01:06:23;8.30;99.90
59007;DHT22;44792;52.760;6.726;2022-11-15T01:08:49;8.30;99.90
59007;DHT22;44792;52.760;6.726;2022-11-15T01:11:14;8.30;99.90
59007;DHT22;44792;52.760;6.726;2022-11-15T01:13:40;8.30;99.90
59007;DHT22;44792;52.760;6.726;2022-11-15T01:16:16;8.30;99.90
59007;DHT22;44792;52.760;6.726;2022-11-15T01:18:45;8.40;99.90
59007;DHT22;44792;52.760;6.726;2022-11-15T01:21:14;8.40;99.90
59007;DHT22;44792;52.760;6.726;2022-11-15T01:23:39;8.40;99.90
59007;DHT22;44792;52.760;6.726;2022-11-15T01:26:07;8.40;99.90
59007;DHT22;44792;52.760;6.726;2022-11-15T01:28:34;8.40;99.90
59007;DHT22;44792;52.760;6.726;2022-11-15T01:31:01;8.30;99.90
59007;DHT22;44792;52.760;6.726;2022-11-15T01:33:28;8.30;99.90
59007;DHT22;44792;52.760;6.726;2022-11-15T01:35:54;8.40;99.90
59007;DHT22;44792;52.760;6.726;2022-11-15T01:38:19;8.40;99.90
59007;DHT22;44792;52.760;6.726;2022-11-15T01:40:45;8.40;99.90
59007;DHT22;44792;52.760;6.726;2022-11-15T01:43:26;8.40;99.90
59007;DHT22;44792;52.760;6.726;2022-11-15T01:46:12;8.40;99.90
59007;DHT22;44792;52.760;6.726;2022-11-15T01:48:39;8.40;99.90
59007;DHT22;44792;52.760;6.726;2022-11-15T01:51:09;8.40;99.90
59007;DHT22;44792;52.760;6.726;2022-11-15T01:53:38;8.40;99.90
59007;DHT22;44792;52.760;6.726;2022-11-15T01:56:06;8.40;99.90
59007;DHT22;44792;52.760;6.726;2022-11-15T01:58:33;8.40;99.90
59007;DHT22;44792;52.760;6.726;2022-11-15T02:00:59;8.50;99.90
59007;DHT22;44792;52.760;6.726;2022-11-15T02:03:42;8.40;99.90
59007;DHT22;44792;52.760;6.726;2022-11-15T02:06:11;8.50;99.90
59007;DHT22;44792;52.760;6.726;2022-11-15T02:08:36;8.40;99.90
59007;DHT22;44792;52.760;6.726;2022-11-15T02:11:07;8.40;99.90
59007;DHT22;44792;52.760;6.726;2022-11-15T02:13:32;8.40;99.90
59007;DHT22;44792;52.760;6.726;2022-11-15T02:16:17;8.50;99.90
59007;DHT22;44792;52.760;6.726;2022-11-15T02:18:57;8.50;99.90
59007;DHT22;44792;52.760;6.726;2022-11-15T02:21:47;8.50;99.90
59007;DHT22;44792;52.760;6.726;2022-11-15T02:24:32;8.50;99.90
59007;DHT22;44792;52.760;6.726;2022-11-15T02:27:24;8.50;99.90
59007;DHT22;44792;52.760;6.726;2022-11-15T02:38:34;8.60;99.90
59007;DHT22;44792;52.760;6.726;2022-11-15T02:41:16;8.60;99.90
59007;DHT22;44792;52.760;6.726;2022-11-15T02:43:59;8.70;99.90
59007;DHT22;44792;52.760;6.726;2022-11-15T02:46:36;8.60;99.90
59007;DHT22;44792;52.760;6.726;2022-11-15T02:49:23;8.60;99.90
59007;DHT22;44792;52.760;6.726;2022-11-15T02:51:51;8.60;99.90
59007;DHT22;44792;52.760;6.726;2022-11-15T02:54:23;8.60;99.90
59007;DHT22;44792;52.760;6.726;2022-11-15T02:56:51;8.60;99.90
59007;DHT22;44792;52.760;6.726;2022-11-15T02:59:40;8.70;99.90
59007;DHT22;44792;52.760;6.726;2022-11-15T03:02:36;8.70;99.90
59007;DHT22;44792;52.760;6.726;2022-11-15T03:13:14;8.70;99.90
59007;DHT22;44792;52.760;6.726;2022-11-15T03:15:51;8.70;99.90
59007;DHT22;44792;52.760;6.726;2022-11-15T03:18:32;8.80;99.90
59007;DHT22;44792;52.760;6.726;2022-11-15T03:21:00;8.80;99.90
59007;DHT22;44792;52.760;6.726;2022-11-15T03:23:28;8.80;99.90
59007;DHT22;44792;52.760;6.726;2022-11-15T03:25:56;8.80;99.90
59007;DHT22;44792;52.760;6.726;2022-11-15T03:31:08;8.80;99.90
59007;DHT22;44792;52.760;6.726;2022-11-15T03:33:59;8.80;99.90
59007;DHT22;44792;52.760;6.726;2022-11-15T03:36:28;8.90;99.90
59007;DHT22;44792;52.760;6.726;2022-11-15T03:38:59;8.80;99.90
59007;DHT22;44792;52.760;6.726;2022-11-15T03:41:39;8.80;99.90
59007;DHT22;44792;52.760;6.726;2022-11-15T03:44:23;8.90;99.90
59007;DHT22;44792;52.760;6.726;2022-11-15T03:47:08;8.90;99.90
59007;DHT22;44792;52.760;6.726;2022-11-15T03:49:36;8.90;99.90
59007;DHT22;44792;52.760;6.726;2022-11-15T03:52:06;8.90;99.90
59007;DHT22;44792;52.760;6.726;2022-11-15T03:54:31;8.90;99.90
59007;DHT22;44792;52.760;6.726;2022-11-15T03:56:57;9.00;99.90
59007;DHT22;44792;52.760;6.726;2022-11-15T03:59:23;9.00;99.90
59007;DHT22;44792;52.760;6.726;2022-11-15T04:01:48;9.00;99.90
59007;DHT22;44792;52.760;6.726;2022-11-15T04:04:14;9.00;99.90
59007;DHT22;44792;52.760;6.726;2022-11-15T04:06:40;9.00;99.90
59007;DHT22;44792;52.760;6.726;2022-11-15T04:09:05;9.10;99.90
59007;DHT22;44792;52.760;6.726;2022-11-15T04:11:31;9.10;99.90
59007;DHT22;44792;52.760;6.726;2022-11-15T04:13:56;9.10;99.90
59007;DHT22;44792;52.760;6.726;2022-11-15T04:16:22;9.10;99.90
59007;DHT22;44792;52.760;6.726;2022-11-15T04:18:47;9.10;99.90
59007;DHT22;44792;52.760;6.726;2022-11-15T04:21:33;9.10;99.90
59007;DHT22;44792;52.760;6.726;2022-11-15T04:24:17;9.10;99.90
59007;DHT22;44792;52.760;6.726;2022-11-15T04:26:42;9.20;99.90
59007;DHT22;44792;52.760;6.726;2022-11-15T04:29:08;9.20;99.90
59007;DHT22;44792;52.760;6.726;2022-11-15T04:31:52;9.20;99.90
59007;DHT22;44792;52.760;6.726;2022-11-15T04:34:18;9.30;99.90
59007;DHT22;44792;52.760;6.726;2022-11-15T04:36:43;9.30;99.90
59007;DHT22;44792;52.760;6.726;2022-11-15T04:39:27;9.40;99.90
59007;DHT22;44792;52.760;6.726;2022-11-15T04:41:53;9.40;99.90
59007;DHT22;44792;52.760;6.726;2022-11-15T04:44:18;9.40;99.90
59007;DHT22;44792;52.760;6.726;2022-11-15T04:46:44;9.40;99.90
59007;DHT22;44792;52.760;6.726;2022-11-15T04:49:10;9.50;99.90
59007;DHT22;44792;52.760;6.726;2022-11-15T04:51:35;9.50;99.90
59007;DHT22;44792;52.760;6.726;2022-11-15T04:54:01;9.50;99.90
59007;DHT22;44792;52.760;6.726;2022-11-15T04:56:26;9.50;99.90
59007;DHT22;44792;52.760;6.726;2022-11-15T04:58:52;9.60;99.90
59007;DHT22;44792;52.760;6.726;2022-11-15T05:01:17;9.60;99.90
59007;DHT22;44792;52.760;6.726;2022-11-15T05:03:43;9.60;99.90
59007;DHT22;44792;52.760;6.726;2022-11-15T05:06:28;9.60;99.90
59007;DHT22;44792;52.760;6.726;2022-11-15T05:08:54;9.70;99.90
59007;DHT22;44792;52.760;6.726;2022-11-15T05:11:21;9.70;99.90
59007;DHT22;44792;52.760;6.726;2022-11-15T05:13:46;9.70;99.90
59007;DHT22;44792;52.760;6.726;2022-11-15T05:16:12;9.70;99.90
59007;DHT22;44792;52.760;6.726;2022-11-15T05:18:38;9.80;99.90
59007;DHT22;44792;52.760;6.726;2022-11-15T05:21:08;9.80;99.90
59007;DHT22;44792;52.760;6.726;2022-11-15T05:23:33;9.80;99.90
59007;DHT22;44792;52.760;6.726;2022-11-15T05:26:00;9.80;99.90
59007;DHT22;44792;52.760;6.726;2022-11-15T05:28:26;9.80;99.90
59007;DHT22;44792;52.760;6.726;2022-11-15T05:30:51;9.90;99.90
59007;DHT22;44792;52.760;6.726;2022-11-15T05:33:17;9.90;99.90
59007;DHT22;44792;52.760;6.726;2022-11-15T05:35:46;9.90;99.90
59007;DHT22;44792;52.760;6.726;2022-11-15T05:38:14;10.00;99.90
59007;DHT22;44792;52.760;6.726;2022-11-15T05:40:39;10.00;99.90
59007;DHT22;44792;52.760;6.726;2022-11-15T05:43:05;10.10;99.90
59007;DHT22;44792;52.760;6.726;2022-11-15T05:45:32;10.20;99.90
59007;DHT22;44792;52.760;6.726;2022-11-15T05:48:01;10.20;99.90
59007;DHT22;44792;52.760;6.726;2022-11-15T05:50:30;10.20;99.90
59007;DHT22;44792;52.760;6.726;2022-11-15T05:52:56;10.20;99.90
59007;DHT22;44792;52.760;6.726;2022-11-15T05:55:22;10.30;99.90
59007;DHT22;44792;52.760;6.726;2022-11-15T05:57:47;10.30;99.90
59007;DHT22;44792;52.760;6.726;2022-11-15T06:00:13;10.30;99.90
59007;DHT22;44792;52.760;6.726;2022-11-15T06:02:39;10.30;99.90
59007;DHT22;44792;52.760;6.726;2022-11-15T06:05:04;10.30;99.90
59007;DHT22;44792;52.760;6.726;2022-11-15T06:07:30;10.40;99.90
59007;DHT22;44792;52.760;6.726;2022-11-15T06:09:56;10.40;99.90
59007;DHT22;44792;52.760;6.726;2022-11-15T06:12:21;10.40;99.90
59007;DHT22;44792;52.760;6.726;2022-11-15T06:14:47;10.50;99.90
59007;DHT22;44792;52.760;6.726;2022-11-15T06:17:13;10.50;99.90
59007;DHT22;44792;52.760;6.726;2022-11-15T06:19:38;10.50;99.90
59007;DHT22;44792;52.760;6.726;2022-11-15T06:22:04;10.50;99.90
59007;DHT22;44792;52.760;6.726;2022-11-15T06:24:29;10.50;99.90
59007;DHT22;44792;52.760;6.726;2022-11-15T06:26:55;10.50;99.90
59007;DHT22;44792;52.760;6.726;2022-11-15T06:29:20;10.50;99.90
59007;DHT22;44792;52.760;6.726;2022-11-15T06:31:46;10.60;99.90
59007;DHT22;44792;52.760;6.726;2022-11-15T06:34:11;10.60;99.90
59007;DHT22;44792;52.760;6.726;2022-11-15T06:36:37;10.60;99.90
59007;DHT22;44792;52.760;6.726;2022-11-15T06:39:04;10.60;99.90
59007;DHT22;44792;52.760;6.726;2022-11-15T06:41:29;10.60;99.90
59007;DHT22;44792;52.760;6.726;2022-11-15T06:43:56;10.60;99.90
59007;DHT22;44792;52.760;6.726;2022-11-15T06:46:22;10.70;99.90
59007;DHT22;44792;52.760;6.726;2022-11-15T06:48:50;10.70;99.90
59007;DHT22;44792;52.760;6.726;2022-11-15T06:51:16;10.70;99.90
59007;DHT22;44792;52.760;6.726;2022-11-15T06:53:42;10.80;99.90
59007;DHT22;44792;52.760;6.726;2022-11-15T06:56:07;10.70;99.90
59007;DHT22;44792;52.760;6.726;2022-11-15T06:58:33;10.70;99.90
59007;DHT22;44792;52.760;6.726;2022-11-15T07:01:03;10.80;99.90
59007;DHT22;44792;52.760;6.726;2022-11-15T07:03:29;10.80;99.90
59007;DHT22;44792;52.760;6.726;2022-11-15T07:05:56;10.80;99.90
59007;DHT22;44792;52.760;6.726;2022-11-15T07:08:22;10.80;99.90
59007;DHT22;44792;52.760;6.726;2022-11-15T07:10:49;10.80;99.90
59007;DHT22;44792;52.760;6.726;2022-11-15T07:13:14;10.80;99.90
59007;DHT22;44792;52.760;6.726;2022-11-15T07:15:40;10.80;99.90
59007;DHT22;44792;52.760;6.726;2022-11-15T07:18:06;10.80;99.90
59007;DHT22;44792;52.760;6.726;2022-11-15T07:20:31;10.80;99.90
59007;DHT22;44792;52.760;6.726;2022-11-15T07:23:01;10.80;99.90
59007;DHT22;44792;52.760;6.726;2022-11-15T07:25:27;10.80;99.90
59007;DHT22;44792;52.760;6.726;2022-11-15T07:27:59;10.90;99.90
59007;DHT22;44792;52.760;6.726;2022-11-15T07:30:26;10.90;99.90
59007;DHT22;44792;52.760;6.726;2022-11-15T07:32:56;10.90;99.90
59007;DHT22;44792;52.760;6.726;2022-11-15T07:35:22;10.90;99.90
59007;DHT22;44792;52.760;6.726;2022-11-15T07:37:59;10.90;99.90
59007;DHT22;44792;52.760;6.726;2022-11-15T07:40:26;11.00;99.90
59007;DHT22;44792;52.760;6.726;2022-11-15T07:42:52;11.00;99.90
59007;DHT22;44792;52.760;6.726;2022-11-15T07:45:18;11.00;99.90
59007;DHT22;44792;52.760;6.726;2022-11-15T07:47:48;11.10;99.90
59007;DHT22;44792;52.760;6.726;2022-11-15T07:50:13;11.10;99.90
59007;DHT22;44792;52.760;6.726;2022-11-15T07:52:39;11.10;99.90
59007;DHT22;44792;52.760;6.726;2022-11-15T07:55:05;11.10;99.90
59007;DHT22;44792;52.760;6.726;2022-11-15T07:57:31;11.10;99.90
59007;DHT22;44792;52.760;6.726;2022-11-15T07:59:56;11.10;99.90
59007;DHT22;44792;52.760;6.726;2022-11-15T08:02:22;11.10;99.90
59007;DHT22;44792;52.760;6.726;2022-11-15T08:04:47;11.20;99.90
59007;DHT22;44792;52.760;6.726;2022-11-15T08:07:13;11.20;99.90
59007;DHT22;44792;52.760;6.726;2022-11-15T08:09:38;11.20;99.90
59007;DHT22;44792;52.760;6.726;2022-11-15T08:12:04;11.20;99.90
59007;DHT22;44792;52.760;6.726;2022-11-15T08:14:30;11.20;99.90
59007;DHT22;44792;52.760;6.726;2022-11-15T08:16:55;11.20;99.90
59007;DHT22;44792;52.760;6.726;2022-11-15T08:19:21;11.20;99.90
59007;DHT22;44792;52.760;6.726;2022-11-15T08:21:47;11.30;99.90
59007;DHT22;44792;52.760;6.726;2022-11-15T08:24:12;11.30;99.90
59007;DHT22;44792;52.760;6.726;2022-11-15T08:26:38;11.30;99.90
59007;DHT22;44792;52.760;6.726;2022-11-15T08:29:05;11.30;99.90
59007;DHT22;44792;52.760;6.726;2022-11-15T08:31:30;11.30;99.90
59007;DHT22;44792;52.760;6.726;2022-11-15T08:33:56;11.30;99.90
59007;DHT22;44792;52.760;6.726;2022-11-15T08:36:21;11.30;99.90
59007;DHT22;44792;52.760;6.726;2022-11-15T08:38:47;11.30;99.90
59007;DHT22;44792;52.760;6.726;2022-11-15T08:41:25;11.30;99.90
59007;DHT22;44792;52.760;6.726;2022-11-15T08:43:51;11.30;99.90
59007;DHT22;44792;52.760;6.726;2022-11-15T08:46:17;11.30;99.90
59007;DHT22;44792;52.760;6.726;2022-11-15T08:48:43;11.30;99.90
59007;DHT22;44792;52.760;6.726;2022-11-15T08:51:09;11.40;99.90
59007;DHT22;44792;52.760;6.726;2022-11-15T08:53:34;11.40;99.90
59007;DHT22;44792;52.760;6.726;2022-11-15T08:56:00;11.40;99.90
59007;DHT22;44792;52.760;6.726;2022-11-15T08:58:26;11.40;99.90
59007;DHT22;44792;52.760;6.726;2022-11-15T09:00:51;11.40;99.90
59007;DHT22;44792;52.760;6.726;2022-11-15T09:03:17;11.40;99.90
59007;DHT22;44792;52.760;6.726;2022-11-15T09:05:42;11.40;99.90
59007;DHT22;44792;52.760;6.726;2022-11-15T09:08:08;11.50;99.90
59007;DHT22;44792;52.760;6.726;2022-11-15T09:10:34;11.50;99.90
59007;DHT22;44792;52.760;6.726;2022-11-15T09:12:59;11.50;99.90
59007;DHT22;44792;52.760;6.726;2022-11-15T09:15:25;11.50;99.90
59007;DHT22;44792;52.760;6.726;2022-11-15T09:17:50;11.50;99.90
59007;DHT22;44792;52.760;6.726;2022-11-15T09:20:16;11.50;99.90
59007;DHT22;44792;52.760;6.726;2022-11-15T09:22:41;11.50;99.90
59007;DHT22;44792;52.760;6.726;2022-11-15T09:25:07;11.60;99.90
59007;DHT22;44792;52.760;6.726;2022-11-15T09:27:33;11.60;99.90
59007;DHT22;44792;52.760;6.726;2022-11-15T09:29:58;11.60;99.90
59007;DHT22;44792;52.760;6.726;2022-11-15T09:32:28;11.60;99.90
59007;DHT22;44792;52.760;6.726;2022-11-15T09:34:55;11.60;99.90
59007;DHT22;44792;52.760;6.726;2022-11-15T09:37:21;11.60;99.90
59007;DHT22;44792;52.760;6.726;2022-11-15T09:39:47;11.60;99.90
59007;DHT22;44792;52.760;6.726;2022-11-15T09:42:35;11.60;99.90
59007;DHT22;44792;52.760;6.726;2022-11-15T09:48:00;11.60;99.90
59007;DHT22;44792;52.760;6.726;2022-11-15T09:52:58;11.60;99.90
59007;DHT22;44792;52.760;6.726;2022-11-15T09:55:34;11.60;99.90
59007;DHT22;44792;52.760;6.726;2022-11-15T09:58:23;11.60;99.90
59007;DHT22;44792;52.760;6.726;2022-11-15T10:00:51;11.60;99.90
59007;DHT22;44792;52.760;6.726;2022-11-15T10:03:33;11.60;99.90
59007;DHT22;44792;52.760;6.726;2022-11-15T10:06:02;11.60;99.90
59007;DHT22;44792;52.760;6.726;2022-11-15T10:08:50;11.60;99.90
59007;DHT22;44792;52.760;6.726;2022-11-15T10:11:25;11.50;99.90
59007;DHT22;44792;52.760;6.726;2022-11-15T10:13:54;11.60;99.90
59007;DHT22;44792;52.760;6.726;2022-11-15T10:16:42;11.60;99.90
59007;DHT22;44792;52.760;6.726;2022-11-15T10:22:09;11.60;99.90
59007;DHT22;44792;52.760;6.726;2022-11-15T10:24:41;11.60;99.90
59007;DHT22;44792;52.760;6.726;2022-11-15T10:27:13;11.60;99.90
59007;DHT22;44792;52.760;6.726;2022-11-15T10:29:44;11.70;99.90
59007;DHT22;44792;52.760;6.726;2022-11-15T10:32:14;11.70;99.90
59007;DHT22;44792;52.760;6.726;2022-11-15T10:34:40;11.70;99.90
59007;DHT22;44792;52.760;6.726;2022-11-15T10:37:06;11.70;99.90
59007;DHT22;44792;52.760;6.726;2022-11-15T10:39:31;11.70;99.90
59007;DHT22;44792;52.760;6.726;2022-11-15T10:42:18;11.80;99.90
59007;DHT22;44792;52.760;6.726;2022-11-15T10:44:50;11.80;99.90
59007;DHT22;44792;52.760;6.726;2022-11-15T10:47:30;11.80;99.90
59007;DHT22;44792;52.760;6.726;2022-11-15T10:50:03;11.80;99.90
59007;DHT22;44792;52.760;6.726;2022-11-15T10:52:31;11.80;99.90
59007;DHT22;44792;52.760;6.726;2022-11-15T10:57:53;11.90;99.90
59007;DHT22;44792;52.760;6.726;2022-11-15T11:02:58;11.90;99.90
59007;DHT22;44792;52.760;6.726;2022-11-15T11:05:36;12.00;99.90
59007;DHT22;44792;52.760;6.726;2022-11-15T11:08:25;12.00;99.90
59007;DHT22;44792;52.760;6.726;2022-11-15T11:10:58;12.00;99.90
59007;DHT22;44792;52.760;6.726;2022-11-15T11:13:26;12.00;99.90
59007;DHT22;44792;52.760;6.726;2022-11-15T11:24:24;12.00;99.90
59007;DHT22;44792;52.760;6.726;2022-11-15T11:27:34;12.10;99.90
59007;DHT22;44792;52.760;6.726;2022-11-15T11:30:22;12.10;99.90
59007;DHT22;44792;52.760;6.726;2022-11-15T11:35:30;12.00;99.90
59007;DHT22;44792;52.760;6.726;2022-11-15T11:40:44;12.00;99.90
59007;DHT22;44792;52.760;6.726;2022-11-15T11:43:40;12.00;99.90
59007;DHT22;44792;52.760;6.726;2022-11-15T11:48:47;12.00;99.90
59007;DHT22;44792;52.760;6.726;2022-11-15T11:51:36;12.00;99.90
59007;DHT22;44792;52.760;6.726;2022-11-15T11:56:43;12.00;99.90
59007;DHT22;44792;52.760;6.726;2022-11-15T12:01:44;12.00;99.90
59007;DHT22;44792;52.760;6.726;2022-11-15T12:04:20;12.00;99.90
59007;DHT22;44792;52.760;6.726;2022-11-15T12:14:57;12.10;99.90
59007;DHT22;44792;52.760;6.726;2022-11-15T12:17:28;12.10;99.90
59007;DHT22;44792;52.760;6.726;2022-11-15T12:19:59;12.10;99.90
59007;DHT22;44792;52.760;6.726;2022-11-15T12:25:18;12.20;99.90
59007;DHT22;44792;52.760;6.726;2022-11-15T12:27:57;12.20;99.90
59007;DHT22;44792;52.760;6.726;2022-11-15T12:30:27;12.30;99.90
59007;DHT22;44792;52.760;6.726;2022-11-15T12:33:01;12.30;99.90
59007;DHT22;44792;52.760;6.726;2022-11-15T12:35:37;12.40;99.90
59007;DHT22;44792;52.760;6.726;2022-11-15T12:38:03;12.40;99.90
59007;DHT22;44792;52.760;6.726;2022-11-15T12:40:34;12.50;99.90
59007;DHT22;44792;52.760;6.726;2022-11-15T12:43:33;12.50;99.90
59007;DHT22;44792;52.760;6.726;2022-11-15T12:45:53;12.50;99.90
59007;DHT22;44792;52.760;6.726;2022-11-15T12:58:55;12.70;99.90
59007;DHT22;44792;52.760;6.726;2022-11-15T13:07:05;12.70;99.90
59007;DHT22;44792;52.760;6.726;2022-11-15T13:12:11;12.70;99.90
59007;DHT22;44792;52.760;6.726;2022-11-15T13:15:00;12.70;99.90
59007;DHT22;44792;52.760;6.726;2022-11-15T13:20:31;12.70;99.90
59007;DHT22;44792;52.760;6.726;2022-11-15T13:23:11;12.70;99.90
59007;DHT22;44792;52.760;6.726;2022-11-15T13:30:58;12.60;99.90
59007;DHT22;44792;52.760;6.726;2022-11-15T13:33:33;12.60;99.90
59007;DHT22;44792;52.760;6.726;2022-11-15T13:36:08;12.50;99.90
59007;DHT22;44792;52.760;6.726;2022-11-15T13:38:37;12.50;99.90
59007;DHT22;44792;52.760;6.726;2022-11-15T13:41:33;12.50;99.90
59007;DHT22;44792;52.760;6.726;2022-11-15T13:44:00;12.50;99.90
59007;DHT22;44792;52.760;6.726;2022-11-15T13:46:28;12.50;99.90
59007;DHT22;44792;52.760;6.726;2022-11-15T13:49:00;12.50;99.90
59007;DHT22;44792;52.760;6.726;2022-11-15T13:51:38;12.50;99.90
59007;DHT22;44792;52.760;6.726;2022-11-15T13:56:52;12.50;99.90
59007;DHT22;44792;52.760;6.726;2022-11-15T13:59:47;12.50;99.90
59007;DHT22;44792;52.760;6.726;2022-11-15T14:02:16;12.40;99.90
59007;DHT22;44792;52.760;6.726;2022-11-15T14:04:55;12.40;99.90
59007;DHT22;44792;52.760;6.726;2022-11-15T14:07:23;12.40;99.90
59007;DHT22;44792;52.760;6.726;2022-11-15T14:09:50;12.40;99.90
59007;DHT22;44792;52.760;6.726;2022-11-15T14:12:28;12.40;99.90
59007;DHT22;44792;52.760;6.726;2022-11-15T14:14:55;12.30;99.90
59007;DHT22;44792;52.760;6.726;2022-11-15T14:19:58;12.30;99.90
59007;DHT22;44792;52.760;6.726;2022-11-15T14:22:26;12.30;99.90
59007;DHT22;44792;52.760;6.726;2022-11-15T14:25:24;12.20;99.90
59007;DHT22;44792;52.760;6.726;2022-11-15T14:30:34;12.20;99.90
59007;DHT22;44792;52.760;6.726;2022-11-15T14:33:00;12.10;99.90
59007;DHT22;44792;52.760;6.726;2022-11-15T14:35:26;12.10;99.90
59007;DHT22;44792;52.760;6.726;2022-11-15T14:38:01;12.00;99.90
59007;DHT22;44792;52.760;6.726;2022-11-15T14:40:26;12.00;99.90
59007;DHT22;44792;52.760;6.726;2022-11-15T14:42:52;12.00;99.90
59007;DHT22;44792;52.760;6.726;2022-11-15T14:45:20;11.90;99.90
59007;DHT22;44792;52.760;6.726;2022-11-15T14:47:46;11.90;99.90
59007;DHT22;44792;52.760;6.726;2022-11-15T14:50:13;11.90;99.90
59007;DHT22;44792;52.760;6.726;2022-11-15T14:52:39;11.80;99.90
59007;DHT22;44792;52.760;6.726;2022-11-15T14:55:16;11.80;99.90
59007;DHT22;44792;52.760;6.726;2022-11-15T14:57:43;11.80;99.90
59007;DHT22;44792;52.760;6.726;2022-11-15T15:00:09;11.80;99.90
59007;DHT22;44792;52.760;6.726;2022-11-15T15:02:35;11.80;99.90
59007;DHT22;44792;52.760;6.726;2022-11-15T15:05:01;11.80;99.90
59007;DHT22;44792;52.760;6.726;2022-11-15T15:07:34;11.80;99.90
59007;DHT22;44792;52.760;6.726;2022-11-15T15:10:00;11.70;99.90
59007;DHT22;44792;52.760;6.726;2022-11-15T15:12:25;11.70;99.90
59007;DHT22;44792;52.760;6.726;2022-11-15T15:14:51;12.20;99.90
59007;DHT22;44792;52.760;6.726;2022-11-15T15:17:17;12.40;99.90
59007;DHT22;44792;52.760;6.726;2022-11-15T15:19:43;12.30;99.90
59007;DHT22;44792;52.760;6.726;2022-11-15T15:22:16;12.30;99.90
59007;DHT22;44792;52.760;6.726;2022-11-15T15:24:43;12.20;99.90
59007;DHT22;44792;52.760;6.726;2022-11-15T15:27:09;12.10;99.90
59007;DHT22;44792;52.760;6.726;2022-11-15T15:29:35;12.20;99.90
59007;DHT22;44792;52.760;6.726;2022-11-15T15:32:00;12.10;99.90
59007;DHT22;44792;52.760;6.726;2022-11-15T15:34:26;12.00;99.90
59007;DHT22;44792;52.760;6.726;2022-11-15T15:37:22;11.90;99.90
59007;DHT22;44792;52.760;6.726;2022-11-15T15:39:54;11.90;99.90
59007;DHT22;44792;52.760;6.726;2022-11-15T15:42:21;12.00;99.90
59007;DHT22;44792;52.760;6.726;2022-11-15T15:44:48;11.90;99.90
59007;DHT22;44792;52.760;6.726;2022-11-15T15:47:16;11.90;99.90
59007;DHT22;44792;52.760;6.726;2022-11-15T15:49:42;11.90;99.90
59007;DHT22;44792;52.760;6.726;2022-11-15T15:52:08;12.00;99.90
59007;DHT22;44792;52.760;6.726;2022-11-15T15:54:33;12.00;99.90
59007;DHT22;44792;52.760;6.726;2022-11-15T15:56:59;12.00;99.90
59007;DHT22;44792;52.760;6.726;2022-11-15T15:59:24;12.00;99.90
59007;DHT22;44792;52.760;6.726;2022-11-15T16:01:50;11.90;99.90
59007;DHT22;44792;52.760;6.726;2022-11-15T16:04:16;11.80;99.90
59007;DHT22;44792;52.760;6.726;2022-11-15T16:06:43;11.90;99.90
59007;DHT22;44792;52.760;6.726;2022-11-15T16:09:16;11.90;99.90
59007;DHT22;44792;52.760;6.726;2022-11-15T16:11:43;11.90;99.90
59007;DHT22;44792;52.760;6.726;2022-11-15T16:14:09;12.00;99.90
59007;DHT22;44792;52.760;6.726;2022-11-15T16:16:35;12.00;99.90
59007;DHT22;44792;52.760;6.726;2022-11-15T16:19:01;12.00;99.90
59007;DHT22;44792;52.760;6.726;2022-11-15T16:21:27;11.90;99.90
59007;DHT22;44792;52.760;6.726;2022-11-15T16:23:53;11.90;99.90
59007;DHT22;44792;52.760;6.726;2022-11-15T16:26:24;11.80;99.90
59007;DHT22;44792;52.760;6.726;2022-11-15T16:28:51;11.80;99.90
59007;DHT22;44792;52.760;6.726;2022-11-15T16:31:16;11.80;99.90
59007;DHT22;44792;52.760;6.726;2022-11-15T16:33:43;11.80;99.90
59007;DHT22;44792;52.760;6.726;2022-11-15T16:36:19;11.70;99.90
59007;DHT22;44792;52.760;6.726;2022-11-15T16:38:45;11.80;99.90
59007;DHT22;44792;52.760;6.726;2022-11-15T16:41:10;11.70;99.90
59007;DHT22;44792;52.760;6.726;2022-11-15T16:43:36;11.70;99.90
59007;DHT22;44792;52.760;6.726;2022-11-15T16:46:20;11.80;99.90
59007;DHT22;44792;52.760;6.726;2022-11-15T16:48:46;11.70;99.90
59007;DHT22;44792;52.760;6.726;2022-11-15T16:51:12;11.70;99.90
59007;DHT22;44792;52.760;6.726;2022-11-15T16:53:38;11.70;99.90
59007;DHT22;44792;52.760;6.726;2022-11-15T16:58:47;11.70;99.90
59007;DHT22;44792;52.760;6.726;2022-11-15T17:01:18;11.70;99.90
59007;DHT22;44792;52.760;6.726;2022-11-15T17:03:44;11.70;99.90
59007;DHT22;44792;52.760;6.726;2022-11-15T17:06:10;11.70;99.90
59007;DHT22;44792;52.760;6.726;2022-11-15T17:08:36;11.70;99.90
59007;DHT22;44792;52.760;6.726;2022-11-15T17:11:06;11.80;99.90
59007;DHT22;44792;52.760;6.726;2022-11-15T17:13:32;11.70;99.90
59007;DHT22;44792;52.760;6.726;2022-11-15T17:16:12;11.70;99.90
59007;DHT22;44792;52.760;6.726;2022-11-15T17:18:39;11.70;99.90
59007;DHT22;44792;52.760;6.726;2022-11-15T17:21:12;11.70;99.90
59007;DHT22;44792;52.760;6.726;2022-11-15T17:23:38;11.70;99.90
59007;DHT22;44792;52.760;6.726;2022-11-15T17:26:04;11.70;99.90
59007;DHT22;44792;52.760;6.726;2022-11-15T17:28:31;11.80;99.90
59007;DHT22;44792;52.760;6.726;2022-11-15T17:30:57;11.80;99.90
59007;DHT22;44792;52.760;6.726;2022-11-15T17:33:23;11.70;99.90